Time;durP1;ratioP1;P1;durP2;ratioP2;P2;SDS_P1;SDS_P2;PMS_P1;PMS_P2;Temp;Humidity;BMP_temperature;BMP_pressure;BME280_temperature;BME280_humidity;BME280_pressure;Samples;Min_cycle;Max_cycle;Signal;HPM_P1;HPM_P2
2021/04/21 00:02:20;;;;;;;18.03;10.50;;;4.00;95.30;;;;;;5066515;28;20433;-58
2021/04/21 00:04:51;;;;;;;17.87;9.60;;;4.00;95.30;;;;;;5058796;28;20440;-60
2021/04/21 00:07:19;;;;;;;17.60;10.93;;;3.90;95.30;;;;;;5068124;28;20508;-59
2021/04/21 00:09:50;;;;;;;19.30;10.30;;;3.90;95.40;;;;;;5065376;28;20435;-60
2021/04/21 00:12:17;;;;;;;13.37;9.10;;;3.80;95.50;;;;;;5067065;28;20960;-59
2021/04/21 00:14:45;;;;;;;15.60;9.03;;;3.80;95.70;;;;;;5060673;28;20867;-59
2021/04/21 00:17:12;;;;;;;16.03;9.30;;;3.80;95.70;;;;;;5067564;28;20405;-59
2021/04/21 00:19:40;;;;;;;16.10;10.40;;;3.80;95.90;;;;;;5065237;28;20440;-59
2021/04/21 00:22:08;;;;;;;15.70;9.03;;;3.70;95.80;;;;;;5066549;28;20436;-59
2021/04/21 00:24:37;;;;;;;15.70;9.73;;;3.70;95.90;;;;;;5065403;28;20762;-59
2021/04/21 00:27:06;;;;;;;18.97;10.90;;;3.70;96.00;;;;;;5067580;28;20975;-59
2021/04/21 00:29:34;;;;;;;15.83;10.83;;;3.70;96.10;;;;;;5066087;28;20431;-59
2021/04/21 00:32:03;;;;;;;16.87;10.40;;;3.60;96.20;;;;;;5056870;28;20428;-59
2021/04/21 00:34:29;;;;;;;19.73;9.80;;;3.60;96.40;;;;;;5062972;28;20524;-58
2021/04/21 00:36:57;;;;;;;19.03;11.03;;;3.60;96.40;;;;;;5068386;28;20413;-59
2021/04/21 00:39:23;;;;;;;18.03;10.50;;;3.60;96.40;;;;;;5068115;28;21105;-59
2021/04/21 00:42:04;;;;;;;18.83;10.60;;;3.60;96.50;;;;;;5064520;28;20490;-60
2021/04/21 00:44:51;;;;;;;29.73;11.20;;;3.60;96.50;;;;;;5064560;28;20432;-58
2021/04/21 00:47:29;;;;;;;18.70;10.90;;;3.60;96.40;;;;;;5065500;28;20447;-59
2021/04/21 00:50:21;;;;;;;15.80;10.20;;;3.50;96.40;;;;;;5066582;28;20427;-59
2021/04/21 00:52:57;;;;;;;26.17;11.23;;;3.50;96.40;;;;;;5065265;28;20424;-59
2021/04/21 00:55:32;;;;;;;20.13;12.00;;;3.50;96.50;;;;;;5066705;28;20837;-59
2021/04/21 00:58:14;;;;;;;21.53;12.10;;;3.40;96.70;;;;;;5072344;28;20439;-60
2021/04/21 01:00:45;;;;;;;22.50;12.13;;;3.40;96.70;;;;;;5065351;28;20505;-58
2021/04/21 01:03:25;;;;;;;19.47;11.03;;;3.40;96.80;;;;;;5071600;28;20820;-59
2021/04/21 01:06:07;;;;;;;19.30;11.20;;;3.30;96.80;;;;;;5068734;28;20455;-59
2021/04/21 01:08:38;;;;;;;26.93;12.17;;;3.30;96.80;;;;;;5069310;28;20567;-58
2021/04/21 01:11:10;;;;;;;20.50;11.50;;;3.30;96.90;;;;;;5070043;28;20420;-59
2021/04/21 01:13:47;;;;;;;19.53;11.10;;;3.30;97.10;;;;;;5070835;28;20425;-59
2021/04/21 01:16:14;;;;;;;16.57;11.47;;;3.20;97.20;;;;;;5067666;28;20458;-59
2021/04/21 01:18:42;;;;;;;24.60;12.20;;;3.20;97.30;;;;;;5069703;28;21031;-60
2021/04/21 01:21:14;;;;;;;20.00;11.10;;;3.20;97.40;;;;;;5067876;28;20423;-58
2021/04/21 01:23:55;;;;;;;18.43;11.37;;;3.20;97.50;;;;;;5068568;28;20952;-60
2021/04/21 01:26:35;;;;;;;18.63;11.53;;;3.20;97.50;;;;;;5070697;28;20458;-57
2021/04/21 01:29:02;;;;;;;19.53;10.90;;;3.20;97.50;;;;;;5065438;28;20458;-59
2021/04/21 01:31:32;;;;;;;23.73;11.30;;;3.10;97.40;;;;;;5070855;28;20449;-58
2021/04/21 01:33:59;;;;;;;21.73;11.57;;;3.10;97.50;;;;;;5060219;28;20423;-58
2021/04/21 01:36:28;;;;;;;19.60;11.80;;;3.10;97.60;;;;;;5061158;28;20528;-58
2021/04/21 01:38:58;;;;;;;20.60;10.73;;;3.00;97.60;;;;;;5063798;28;20501;-57
2021/04/21 01:41:26;;;;;;;20.17;11.43;;;3.00;97.60;;;;;;5069602;28;20485;-58
2021/04/21 01:44:13;;;;;;;19.77;11.17;;;3.00;97.60;;;;;;5067548;28;20433;-59
2021/04/21 01:46:42;;;;;;;17.73;10.83;;;2.90;97.50;;;;;;5067137;28;20505;-58
2021/04/21 01:49:36;;;;;;;25.50;11.80;;;2.90;97.60;;;;;;5070629;28;20455;-59
2021/04/21 01:52:18;;;;;;;21.13;10.60;;;2.80;97.60;;;;;;5070534;28;20924;-59
2021/04/21 01:54:48;;;;;;;21.43;11.37;;;2.80;97.50;;;;;;5064791;28;20438;-59
2021/04/21 01:57:30;;;;;;;19.13;11.10;;;2.80;97.20;;;;;;5069748;28;20860;-61
2021/04/21 02:00:05;;;;;;;19.10;10.67;;;2.70;97.00;;;;;;5061978;28;20425;-58
2021/04/21 02:02:37;;;;;;;22.87;11.97;;;2.70;96.90;;;;;;5069444;28;20423;-58
2021/04/21 02:05:21;;;;;;;23.10;11.73;;;2.60;96.90;;;;;;5064713;28;20843;-58
2021/04/21 02:08:12;;;;;;;20.27;11.30;;;2.50;97.10;;;;;;5067014;28;20458;-59
2021/04/21 02:11:26;;;;;;;23.60;11.93;;;2.50;97.30;;;;;;5068792;28;20527;-58
2021/04/21 02:14:00;;;;;;;25.20;12.00;;;2.50;97.30;;;;;;5053978;28;20447;-59
2021/04/21 02:16:35;;;;;;;23.10;12.90;;;2.40;97.30;;;;;;5067981;28;20515;-58
2021/04/21 02:19:47;;;;;;;26.30;12.60;;;2.40;97.50;;;;;;5069370;28;21036;-59
2021/04/21 02:22:40;;;;;;;17.37;11.27;;;2.40;97.60;;;;;;5061381;28;20419;-58
2021/04/21 02:25:43;;;;;;;22.47;11.03;;;2.40;97.70;;;;;;5064242;28;20464;-58
2021/04/21 02:28:27;;;;;;;22.90;11.33;;;2.40;97.80;;;;;;5064585;28;20446;-59
2021/04/21 02:31:05;;;;;;;21.60;11.03;;;2.40;97.80;;;;;;5068925;28;20811;-59
2021/04/21 02:33:38;;;;;;;23.53;12.73;;;2.40;97.70;;;;;;5065664;28;20452;-59
2021/04/21 02:36:09;;;;;;;19.90;11.73;;;2.40;97.80;;;;;;5068482;28;20442;-59
2021/04/21 02:38:48;;;;;;;20.23;11.67;;;2.30;97.90;;;;;;5068399;28;20476;-59
2021/04/21 02:41:28;;;;;;;22.43;12.10;;;2.30;98.00;;;;;;5064562;28;20435;-59
2021/04/21 02:44:18;;;;;;;27.07;14.00;;;2.30;98.10;;;;;;5067582;28;20522;-58
2021/04/21 02:47:14;;;;;;;21.57;12.30;;;2.30;98.20;;;;;;5065852;28;20509;-60
2021/04/21 02:49:54;;;;;;;22.00;12.03;;;2.30;98.30;;;;;;5063385;28;20436;-60
2021/04/21 02:52:49;;;;;;;23.00;11.87;;;2.20;98.30;;;;;;5065184;28;20879;-59
2021/04/21 02:55:18;;;;;;;24.20;11.83;;;2.20;98.40;;;;;;5065425;28;20432;-59
2021/04/21 02:57:54;;;;;;;22.77;12.53;;;2.20;98.40;;;;;;5065300;28;20452;-58
2021/04/21 03:00:28;;;;;;;24.33;11.57;;;2.20;98.50;;;;;;5068885;28;20431;-59
2021/04/21 03:03:13;;;;;;;20.27;11.13;;;2.20;98.70;;;;;;5069393;28;20520;-59
2021/04/21 03:05:42;;;;;;;25.10;12.43;;;2.20;98.80;;;;;;5067785;28;20469;-59
2021/04/21 03:08:27;;;;;;;21.30;11.90;;;2.20;98.90;;;;;;5067804;28;21046;-59
2021/04/21 03:11:03;;;;;;;21.13;12.37;;;2.10;98.70;;;;;;5067958;28;21322;-60
2021/04/21 03:13:32;;;;;;;24.87;12.80;;;2.10;98.70;;;;;;5065248;28;20881;-58
2021/04/21 03:16:05;;;;;;;23.03;13.30;;;2.10;98.70;;;;;;5065450;28;20527;-58
2021/04/21 03:18:32;;;;;;;24.90;12.67;;;2.10;98.70;;;;;;5065702;28;21251;-59
2021/04/21 03:21:07;;;;;;;23.17;12.03;;;2.10;98.90;;;;;;5070301;28;20413;-59
2021/04/21 03:23:37;;;;;;;23.90;13.67;;;2.00;99.00;;;;;;5067965;28;21007;-59
2021/04/21 03:26:03;;;;;;;26.93;13.83;;;2.00;99.20;;;;;;5060454;28;20562;-59
2021/04/21 03:28:33;;;;;;;27.00;13.03;;;2.00;99.30;;;;;;5069613;28;20443;-59
2021/04/21 03:31:03;;;;;;;26.97;13.50;;;2.00;99.30;;;;;;5068078;28;20434;-59
2021/04/21 03:33:50;;;;;;;23.40;12.00;;;2.00;99.20;;;;;;5067094;28;20431;-58
2021/04/21 03:36:18;;;;;;;27.00;15.07;;;2.00;99.20;;;;;;5067388;28;20427;-59
2021/04/21 03:38:46;;;;;;;20.80;11.57;;;1.90;99.00;;;;;;5064740;28;20470;-59
2021/04/21 03:41:12;;;;;;;25.30;13.23;;;1.90;99.00;;;;;;5067647;28;20436;-59
2021/04/21 03:43:40;;;;;;;23.20;12.63;;;1.90;99.00;;;;;;5067045;28;20473;-59
2021/04/21 03:46:07;;;;;;;24.20;13.43;;;1.90;99.00;;;;;;5063427;28;20981;-59
2021/04/21 03:48:34;;;;;;;22.10;12.27;;;1.80;98.80;;;;;;5062999;28;20991;-59
2021/04/21 03:51:00;;;;;;;24.83;13.70;;;1.80;98.60;;;;;;5062511;28;20920;-59
2021/04/21 03:53:32;;;;;;;27.40;14.40;;;1.80;98.50;;;;;;5063094;28;20441;-60
2021/04/21 03:55:59;;;;;;;32.43;14.67;;;1.70;98.50;;;;;;5058555;28;20454;-59
2021/04/21 03:58:28;;;;;;;26.30;14.10;;;1.70;98.60;;;;;;5069163;28;20458;-58
2021/04/21 04:01:01;;;;;;;23.70;12.70;;;1.70;98.70;;;;;;5061388;28;20868;-58
2021/04/21 04:03:28;;;;;;;23.93;13.70;;;1.70;98.80;;;;;;5064391;28;20438;-59
2021/04/21 04:06:02;;;;;;;28.63;15.20;;;1.60;98.80;;;;;;5066706;28;20462;-59
2021/04/21 04:08:34;;;;;;;24.30;13.70;;;1.60;98.70;;;;;;5057498;28;20521;-59
2021/04/21 04:11:01;;;;;;;27.17;13.30;;;1.60;98.90;;;;;;5059575;28;20522;-57
2021/04/21 04:13:31;;;;;;;27.67;13.97;;;1.60;98.90;;;;;;5064999;28;20435;-59
2021/04/21 04:15:58;;;;;;;33.70;14.37;;;1.60;98.80;;;;;;5065057;28;20430;-58
2021/04/21 04:18:24;;;;;;;22.53;12.50;;;1.60;98.80;;;;;;5067296;28;20488;-58
2021/04/21 04:20:51;;;;;;;25.83;13.60;;;1.50;99.00;;;;;;5067405;28;20945;-58
2021/04/21 04:23:19;;;;;;;26.60;14.00;;;1.60;99.00;;;;;;5063837;28;20438;-58
2021/04/21 04:25:47;;;;;;;24.43;14.90;;;1.60;99.00;;;;;;5066945;28;20465;-58
2021/04/21 04:28:14;;;;;;;30.03;15.10;;;1.60;99.20;;;;;;5069664;28;20457;-59
2021/04/21 04:30:41;;;;;;;29.00;14.87;;;1.60;99.30;;;;;;5065616;28;20434;-58
2021/04/21 04:33:08;;;;;;;26.70;14.00;;;1.60;99.20;;;;;;5051429;28;20435;-59
2021/04/21 04:35:35;;;;;;;23.90;13.13;;;1.60;99.20;;;;;;5064395;28;20446;-57
2021/04/21 04:38:02;;;;;;;28.87;15.37;;;1.60;99.30;;;;;;5068134;28;20589;-57
2021/04/21 04:40:30;;;;;;;23.47;13.20;;;1.60;99.50;;;;;;5060280;28;20473;-58
2021/04/21 04:42:56;;;;;;;25.50;13.93;;;1.60;99.50;;;;;;5066338;28;20472;-59
2021/04/21 04:45:26;;;;;;;28.07;13.27;;;1.60;99.50;;;;;;5055708;28;20458;-58
2021/04/21 04:47:56;;;;;;;31.83;14.17;;;1.50;99.50;;;;;;5061353;28;20518;-59
2021/04/21 04:50:23;;;;;;;29.40;13.90;;;1.50;99.50;;;;;;5062010;28;20461;-61
2021/04/21 04:52:54;;;;;;;35.33;15.20;;;1.50;99.60;;;;;;5060135;28;20438;-60
2021/04/21 04:55:23;;;;;;;30.53;16.83;;;1.50;99.60;;;;;;5058243;28;20423;-61
2021/04/21 04:57:50;;;;;;;31.33;16.20;;;1.60;99.80;;;;;;5055260;28;20484;-60
2021/04/21 05:00:19;;;;;;;25.73;14.90;;;1.60;99.80;;;;;;5059258;28;20951;-60
2021/04/21 05:03:15;;;;;;;30.77;15.37;;;1.60;99.70;;;;;;5052081;28;20435;-58
2021/04/21 05:05:42;;;;;;;28.13;14.83;;;1.60;99.90;;;;;;5058961;28;20497;-60
2021/04/21 05:08:14;;;;;;;24.17;13.63;;;1.70;99.90;;;;;;5064870;28;20466;-58
2021/04/21 05:10:58;;;;;;;31.77;14.37;;;1.80;99.90;;;;;;5056324;28;20442;-59
2021/04/21 05:13:26;;;;;;;26.23;15.03;;;1.80;99.80;;;;;;5057505;28;20431;-58
2021/04/21 05:15:52;;;;;;;28.73;14.00;;;1.90;99.90;;;;;;5061655;28;20435;-59
2021/04/21 05:18:36;;;;;;;26.20;14.50;;;1.90;99.40;;;;;;5081153;28;20508;-59
2021/04/21 05:21:17;;;;;;;26.53;14.67;;;2.00;99.30;;;;;;5086891;28;20196;-59
2021/04/21 05:24:21;;;;;;;29.53;15.53;;;2.10;99.10;;;;;;5086816;28;20445;-59
2021/04/21 05:26:59;;;;;;;29.03;15.43;;;2.20;99.00;;;;;;5088338;28;20454;-63
2021/04/21 05:30:12;;;;;;;37.93;17.43;;;2.20;98.80;;;;;;5088232;28;20453;-61
2021/04/21 05:33:15;;;;;;;34.13;16.57;;;2.30;98.60;;;;;;5103877;28;20474;-61
2021/04/21 05:36:19;;;;;;;33.63;16.57;;;2.30;98.40;;;;;;5052576;28;20426;-59
2021/04/21 05:39:17;;;;;;;31.80;16.67;;;2.50;98.40;;;;;;5051968;28;20560;-58
2021/04/21 05:41:48;;;;;;;36.13;17.50;;;2.50;98.20;;;;;;5019719;28;20434;-60
2021/04/21 05:44:55;;;;;;;32.83;16.50;;;2.70;98.10;;;;;;5062631;28;20508;-59
2021/04/21 05:47:42;;;;;;;33.70;16.60;;;2.80;98.00;;;;;;5030687;28;20447;-59
2021/04/21 05:50:32;;;;;;;33.10;15.73;;;2.90;97.90;;;;;;5065843;28;20434;-60
2021/04/21 05:53:36;;;;;;;34.30;14.73;;;2.90;97.60;;;;;;5069053;28;20429;-60
2021/04/21 05:56:20;;;;;;;23.97;14.57;;;3.00;97.50;;;;;;5068122;28;20420;-59
2021/04/21 05:59:21;;;;;;;31.43;14.53;;;3.10;97.50;;;;;;5069855;28;20446;-60
2021/04/21 06:01:47;;;;;;;28.50;14.43;;;3.20;97.40;;;;;;5036498;28;20498;-59
2021/04/21 06:04:16;;;;;;;27.70;15.27;;;3.30;97.50;;;;;;5063301;28;20836;-60
2021/04/21 06:06:42;;;;;;;30.47;15.00;;;3.40;97.60;;;;;;5067776;28;21117;-60
2021/04/21 06:09:09;;;;;;;29.03;14.40;;;3.50;97.20;;;;;;5066905;28;20445;-60
2021/04/21 06:11:36;;;;;;;34.27;15.53;;;3.60;97.30;;;;;;5064121;28;20507;-59
2021/04/21 06:14:05;;;;;;;31.23;15.83;;;3.70;97.30;;;;;;5064627;28;20417;-60
2021/04/21 06:16:32;;;;;;;40.63;18.23;;;3.80;97.20;;;;;;5065157;28;20433;-60
2021/04/21 06:19:06;;;;;;;36.07;18.87;;;3.90;97.00;;;;;;5065358;28;20535;-59
2021/04/21 06:21:38;;;;;;;34.13;17.53;;;4.00;96.90;;;;;;5070841;28;20518;-59
2021/04/21 06:24:18;;;;;;;35.63;16.70;;;4.10;96.80;;;;;;5064597;28;20442;-60
2021/04/21 06:26:44;;;;;;;32.37;16.83;;;4.20;97.00;;;;;;5066729;28;20443;-59
2021/04/21 06:29:10;;;;;;;31.10;16.87;;;4.30;97.00;;;;;;5065427;28;20457;-59
2021/04/21 06:31:52;;;;;;;36.47;18.03;;;4.40;96.90;;;;;;5068370;28;20228;-59
2021/04/21 06:34:18;;;;;;;46.23;18.23;;;4.50;96.50;;;;;;5057640;28;20186;-59
2021/04/21 06:36:54;;;;;;;30.07;15.97;;;4.60;96.20;;;;;;5066482;28;20943;-59
2021/04/21 06:39:23;;;;;;;38.20;18.30;;;4.70;96.00;;;;;;5096806;22;20250;-56
2021/04/21 06:41:55;;;;;;;30.07;16.80;;;4.80;96.00;;;;;;5060772;28;20468;-56
2021/04/21 06:44:42;;;;;;;39.20;18.83;;;4.90;95.80;;;;;;5066667;28;21038;-57
2021/04/21 06:47:28;;;;;;;37.90;19.50;;;5.00;96.00;;;;;;5063684;28;20545;-56
2021/04/21 06:49:58;;;;;;;42.57;18.40;;;5.20;95.50;;;;;;5059874;28;20474;-56
2021/04/21 06:52:33;;;;;;;35.83;18.70;;;5.30;95.50;;;;;;5058335;28;20434;-57
2021/04/21 06:55:05;;;;;;;46.73;17.57;;;5.40;95.60;;;;;;5056723;28;20895;-56
2021/04/21 06:57:31;;;;;;;43.97;18.87;;;5.60;95.10;;;;;;5053659;28;20436;-57
2021/04/21 07:00:07;;;;;;;39.90;18.93;;;5.70;94.90;;;;;;5060618;28;20983;-56
2021/04/21 07:02:38;;;;;;;43.13;20.37;;;5.80;94.90;;;;;;5058853;28;20424;-55
2021/04/21 07:05:26;;;;;;;47.00;19.93;;;6.00;95.00;;;;;;5059191;28;20431;-57
2021/04/21 07:08:11;;;;;;;44.67;19.13;;;6.10;94.90;;;;;;5064769;28;20437;-56
2021/04/21 07:10:43;;;;;;;50.27;19.93;;;6.20;95.20;;;;;;5059868;28;20448;-57
2021/04/21 07:13:15;;;;;;;50.73;20.97;;;6.40;95.10;;;;;;5063270;28;20425;-55
2021/04/21 07:15:41;;;;;;;56.30;19.40;;;6.60;95.00;;;;;;5061367;28;20558;-56
2021/04/21 07:18:13;;;;;;;41.80;19.40;;;6.60;94.30;;;;;;5054773;28;20925;-57
2021/04/21 07:20:39;;;;;;;43.87;19.43;;;6.80;94.40;;;;;;5061477;28;20526;-57
2021/04/21 07:23:05;;;;;;;43.10;20.57;;;6.90;94.60;;;;;;5055515;28;21010;-56
2021/04/21 07:25:30;;;;;;;43.27;20.30;;;7.00;94.20;;;;;;5060943;28;20541;-57
2021/04/21 07:27:56;;;;;;;47.57;20.33;;;7.10;93.90;;;;;;5054747;28;20183;-56
2021/04/21 07:30:27;;;;;;;40.63;18.90;;;7.30;94.10;;;;;;5053316;28;20199;-56
2021/04/21 07:32:53;;;;;;;38.93;19.13;;;7.50;94.30;;;;;;5063543;28;21008;-57
2021/04/21 07:35:22;;;;;;;36.93;17.93;;;7.60;94.00;;;;;;5057893;28;20429;-56
2021/04/21 07:37:50;;;;;;;35.90;17.73;;;7.80;94.10;;;;;;5058414;28;20439;-53
2021/04/21 07:40:19;;;;;;;33.13;17.30;;;7.90;92.90;;;;;;5058119;28;20457;-55
2021/04/21 07:42:45;;;;;;;30.07;17.20;;;8.00;92.40;;;;;;5054356;28;20999;-56
2021/04/21 07:45:12;;;;;;;36.27;18.30;;;8.10;92.10;;;;;;5058697;28;20456;-56
2021/04/21 07:47:38;;;;;;;32.20;15.90;;;8.20;91.70;;;;;;5061801;28;21017;-55
2021/04/21 07:50:05;;;;;;;31.60;16.93;;;8.30;91.60;;;;;;5058706;28;20468;-55
2021/04/21 07:52:34;;;;;;;29.43;16.27;;;8.40;91.40;;;;;;5053886;28;20193;-55
2021/04/21 07:55:21;;;;;;;28.87;15.80;;;8.50;91.40;;;;;;5062223;28;20436;-54
2021/04/21 07:57:59;;;;;;;27.73;14.20;;;8.60;91.50;;;;;;5058120;28;20443;-56
2021/04/21 08:00:27;;;;;;;27.57;14.80;;;8.80;91.80;;;;;;5057504;28;20983;-55
2021/04/21 08:02:53;;;;;;;24.40;15.13;;;9.00;92.50;;;;;;5058942;28;20426;-56
2021/04/21 08:05:19;;;;;;;24.47;14.57;;;9.20;92.00;;;;;;5061167;28;20469;-52
2021/04/21 08:07:56;;;;;;;27.13;15.73;;;9.40;90.80;;;;;;5057805;28;20179;-56
2021/04/21 08:10:27;;;;;;;22.97;14.10;;;9.60;90.20;;;;;;5074420;28;20731;-54
2021/04/21 08:12:58;;;;;;;32.07;14.40;;;9.70;89.80;;;;;;5071306;28;20441;-54
2021/04/21 08:15:31;;;;;;;23.93;13.30;;;9.90;88.70;;;;;;5062540;28;20902;-54
2021/04/21 08:18:02;;;;;;;22.17;13.20;;;10.10;87.30;;;;;;5061530;28;20436;-57
2021/04/21 08:20:40;;;;;;;32.20;14.87;;;10.30;84.60;;;;;;5059733;28;20457;-57
2021/04/21 08:23:08;;;;;;;24.20;13.83;;;10.50;83.80;;;;;;5060488;28;20432;-57
2021/04/21 08:25:34;;;;;;;19.50;10.87;;;10.60;83.00;;;;;;5050651;28;20461;-55
2021/04/21 08:28:00;;;;;;;23.27;12.70;;;10.80;80.90;;;;;;5051619;28;20443;-55
2021/04/21 08:30:29;;;;;;;18.63;11.30;;;11.00;74.90;;;;;;5055141;28;20452;-59
2021/04/21 08:32:55;;;;;;;23.10;12.40;;;11.20;71.50;;;;;;5057865;28;20190;-53
2021/04/21 08:35:21;;;;;;;41.47;14.83;;;11.30;68.00;;;;;;5057412;28;20493;-56
2021/04/21 08:37:47;;;;;;;23.13;12.57;;;11.50;65.20;;;;;;5051545;28;20774;-58
2021/04/21 08:40:17;;;;;;;19.70;12.33;;;11.70;64.20;;;;;;5053337;28;21047;-57
2021/04/21 08:42:46;;;;;;;20.17;11.53;;;11.90;62.30;;;;;;5068043;28;20694;-57
2021/04/21 08:45:13;;;;;;;19.47;11.70;;;12.00;58.30;;;;;;5053993;28;20445;-59
2021/04/21 08:47:41;;;;;;;20.00;11.53;;;12.10;55.70;;;;;;5061196;28;20429;-57
2021/04/21 08:50:10;;;;;;;22.10;12.20;;;12.20;55.10;;;;;;5056580;28;20483;-58
2021/04/21 08:53:11;;;;;;;21.20;12.00;;;12.40;54.50;;;;;;5053379;28;20815;-55
2021/04/21 08:55:38;;;;;;;14.43;9.67;;;12.50;54.10;;;;;;5052310;28;20431;-58
2021/04/21 08:58:04;;;;;;;16.70;10.43;;;12.80;52.10;;;;;;5057311;28;20458;-55
2021/04/21 09:00:30;;;;;;;13.90;10.10;;;13.00;48.60;;;;;;5053355;28;20869;-59
2021/04/21 09:02:56;;;;;;;15.50;9.97;;;13.10;49.20;;;;;;5050954;28;20519;-57
2021/04/21 09:05:22;;;;;;;16.30;9.30;;;13.30;49.50;;;;;;5059728;28;20456;-58
2021/04/21 09:07:48;;;;;;;15.87;9.50;;;13.50;47.50;;;;;;5063442;28;20447;-57
2021/04/21 09:10:17;;;;;;;15.37;8.83;;;13.50;45.70;;;;;;5063609;28;20440;-57
2021/04/21 09:12:43;;;;;;;13.20;8.03;;;13.60;45.70;;;;;;5057026;28;20231;-58
2021/04/21 09:15:12;;;;;;;10.50;7.77;;;13.80;45.20;;;;;;5064094;28;20436;-58
2021/04/21 09:17:48;;;;;;;9.87;6.80;;;13.80;42.20;;;;;;5063337;28;20640;-57
2021/04/21 09:20:16;;;;;;;11.17;7.67;;;13.80;40.10;;;;;;5061148;28;20448;-60
2021/04/21 09:23:00;;;;;;;10.07;7.37;;;13.90;40.50;;;;;;5061323;28;20432;-58
2021/04/21 09:25:35;;;;;;;10.37;7.30;;;14.00;41.50;;;;;;5060671;28;20465;-56
2021/04/21 09:28:00;;;;;;;12.23;8.40;;;14.20;42.30;;;;;;5058623;28;20906;-59
2021/04/21 09:30:27;;;;;;;10.10;7.13;;;14.40;43.40;;;;;;5058613;28;20456;-53
2021/04/21 09:32:55;;;;;;;10.90;6.87;;;14.60;43.30;;;;;;5056750;28;20223;-57
2021/04/21 09:35:28;;;;;;;9.27;6.40;;;14.80;42.60;;;;;;5059501;28;20845;-56
2021/04/21 09:38:05;;;;;;;16.03;6.97;;;15.00;41.50;;;;;;5065808;28;20441;-56
2021/04/21 09:40:44;;;;;;;10.20;7.47;;;15.10;42.20;;;;;;5055646;28;20471;-56
2021/04/21 09:43:27;;;;;;;11.47;7.37;;;15.40;42.50;;;;;;5050564;28;20447;-59
2021/04/21 09:45:59;;;;;;;13.20;8.00;;;15.50;42.40;;;;;;5059698;28;20854;-56
2021/04/21 09:48:27;;;;;;;8.73;6.63;;;15.70;41.80;;;;;;5061195;28;20434;-58
2021/04/21 09:51:02;;;;;;;10.60;8.20;;;15.80;41.60;;;;;;5054732;28;20548;-58
2021/04/21 09:53:28;;;;;;;13.60;7.23;;;16.00;40.80;;;;;;5063199;28;20420;-58
2021/04/21 09:56:19;;;;;;;10.47;7.43;;;16.10;39.10;;;;;;5058990;28;20953;-56
2021/04/21 09:58:50;;;;;;;11.30;7.83;;;16.10;39.50;;;;;;5064486;28;20647;-56
2021/04/21 10:01:33;;;;;;;12.10;8.50;;;16.20;39.00;;;;;;5058715;28;20856;-59
2021/04/21 10:04:22;;;;;;;11.10;8.10;;;16.40;40.20;;;;;;5059836;28;20429;-58
2021/04/21 10:06:55;;;;;;;9.70;6.83;;;16.40;38.70;;;;;;5058652;28;20453;-58
2021/04/21 10:09:32;;;;;;;11.40;7.20;;;16.50;39.20;;;;;;5061465;28;22073;-57
2021/04/21 10:12:18;;;;;;;13.50;8.80;;;16.70;39.90;;;;;;5059230;28;20570;-56
2021/04/21 10:15:01;;;;;;;14.80;8.93;;;16.90;39.20;;;;;;5061626;28;20938;-58
2021/04/21 10:17:31;;;;;;;11.40;8.00;;;17.00;39.40;;;;;;5063020;28;20431;-58
2021/04/21 10:19:58;;;;;;;16.07;9.80;;;17.10;40.30;;;;;;5068525;28;20497;-57
2021/04/21 10:22:24;;;;;;;15.67;10.40;;;17.10;40.70;;;;;;5057751;28;20425;-58
2021/04/21 10:24:52;;;;;;;16.60;9.63;;;17.20;42.20;;;;;;5062750;28;20897;-56
2021/04/21 10:27:18;;;;;;;14.83;9.60;;;17.40;42.20;;;;;;5073016;28;20466;-58
2021/04/21 10:29:44;;;;;;;16.77;9.97;;;17.50;42.50;;;;;;5057770;28;20449;-58
2021/04/21 10:32:15;;;;;;;12.03;8.13;;;17.40;41.40;;;;;;5063944;28;20182;-58
2021/04/21 10:34:44;;;;;;;16.70;8.63;;;17.40;42.50;;;;;;5055876;28;20437;-58
2021/04/21 10:37:13;;;;;;;8.53;6.43;;;17.30;41.40;;;;;;5070724;28;20424;-58
2021/04/21 10:39:40;;;;;;;6.07;4.80;;;17.10;40.80;;;;;;5071970;28;20850;-57
2021/04/21 10:42:09;;;;;;;9.43;5.13;;;16.80;40.70;;;;;;5055609;28;20520;-57
2021/04/21 10:44:36;;;;;;;7.13;4.80;;;16.60;40.50;;;;;;5065668;28;20885;-59
2021/04/21 10:47:10;;;;;;;14.43;5.40;;;16.40;41.10;;;;;;5058999;28;20472;-56
2021/04/21 10:50:04;;;;;;;8.50;4.53;;;16.50;42.50;;;;;;5057682;28;20452;-58
2021/04/21 10:52:30;;;;;;;13.23;5.27;;;16.60;42.70;;;;;;5060842;28;20845;-58
2021/04/21 10:54:59;;;;;;;5.87;4.53;;;16.50;40.50;;;;;;5060435;28;20454;-58
2021/04/21 10:57:35;;;;;;;5.37;4.50;;;16.10;39.10;;;;;;5056393;28;20214;-62
2021/04/21 11:00:23;;;;;;;6.40;4.70;;;15.60;39.80;;;;;;5054336;28;20691;-56
2021/04/21 11:03:04;;;;;;;5.60;4.70;;;15.20;40.70;;;;;;5056149;28;20550;-58
2021/04/21 11:05:42;;;;;;;12.83;4.90;;;14.80;41.70;;;;;;5054195;28;20453;-56
2021/04/21 11:08:22;;;;;;;8.53;4.47;;;14.50;42.50;;;;;;5052979;28;20443;-60
2021/04/21 11:11:02;;;;;;;6.90;5.10;;;14.20;43.70;;;;;;5060338;28;20749;-60
2021/04/21 11:13:42;;;;;;;5.97;4.80;;;14.00;44.00;;;;;;5055238;28;20495;-57
2021/04/21 11:16:29;;;;;;;5.50;4.40;;;13.80;44.30;;;;;;5055916;28;20446;-57
2021/04/21 11:19:18;;;;;;;5.73;4.67;;;13.60;44.20;;;;;;5059693;28;20477;-58
2021/04/21 11:21:45;;;;;;;7.40;4.83;;;13.50;44.80;;;;;;5055512;28;20440;-58
2021/04/21 11:24:12;;;;;;;6.00;5.13;;;13.40;45.80;;;;;;5057791;28;20429;-61
2021/04/21 11:26:43;;;;;;;9.43;5.50;;;13.30;46.70;;;;;;5054279;28;20471;-60
2021/04/21 11:29:32;;;;;;;10.77;8.27;;;13.20;47.20;;;;;;5056092;28;20482;-57
2021/04/21 11:32:00;;;;;;;17.53;7.90;;;13.10;46.10;;;;;;5058548;28;20429;-59
2021/04/21 11:34:28;;;;;;;10.23;6.50;;;13.00;47.00;;;;;;5052386;28;20524;-58
2021/04/21 11:37:15;;;;;;;12.23;7.40;;;13.00;47.10;;;;;;5050616;28;20443;-57
2021/04/21 11:39:40;;;;;;;8.80;6.87;;;13.00;47.70;;;;;;5055798;28;20461;-56
2021/04/21 11:42:24;;;;;;;12.30;7.27;;;13.00;46.60;;;;;;5062164;28;20418;-58
2021/04/21 11:44:54;;;;;;;8.90;6.43;;;13.00;45.10;;;;;;5055946;28;20187;-57
2021/04/21 11:47:47;;;;;;;9.70;7.10;;;12.90;45.70;;;;;;5057192;28;20464;-57
2021/04/21 11:50:26;;;;;;;12.10;7.80;;;13.00;47.30;;;;;;5052706;28;20476;-57
2021/04/21 11:53:06;;;;;;;12.67;7.10;;;12.90;46.90;;;;;;5051220;28;20438;-58
2021/04/21 11:55:38;;;;;;;12.70;7.07;;;12.90;45.90;;;;;;5052359;28;20418;-59
2021/04/21 11:58:37;;;;;;;9.77;6.83;;;12.90;46.20;;;;;;5057930;28;20430;-57
2021/04/21 12:01:07;;;;;;;10.00;7.10;;;13.00;45.20;;;;;;5049754;28;20437;-57
2021/04/21 12:03:34;;;;;;;11.40;7.10;;;12.90;45.10;;;;;;5062206;28;20426;-58
2021/04/21 12:06:00;;;;;;;8.90;6.07;;;13.00;45.50;;;;;;5049646;28;20457;-57
2021/04/21 12:08:32;;;;;;;10.57;6.80;;;13.00;45.80;;;;;;5052971;28;20433;-59
2021/04/21 12:11:00;;;;;;;10.37;6.30;;;13.10;45.90;;;;;;5057411;28;20452;-54
2021/04/21 12:13:33;;;;;;;9.77;6.07;;;13.10;45.80;;;;;;5060826;28;20441;-58
2021/04/21 12:16:09;;;;;;;8.40;5.43;;;13.30;45.80;;;;;;5058706;28;20425;-59
2021/04/21 12:18:39;;;;;;;10.03;5.90;;;13.30;45.30;;;;;;5055687;28;20704;-59
2021/04/21 12:21:28;;;;;;;7.10;5.47;;;13.40;44.90;;;;;;5059587;28;20460;-56
2021/04/21 12:24:02;;;;;;;7.63;5.30;;;13.50;44.20;;;;;;5049667;28;20959;-58
2021/04/21 12:26:39;;;;;;;7.73;5.43;;;13.60;43.70;;;;;;5059849;28;20452;-58
2021/04/21 12:29:15;;;;;;;7.07;5.40;;;13.70;43.30;;;;;;5059714;28;20441;-60
2021/04/21 12:31:42;;;;;;;8.20;5.70;;;13.70;43.10;;;;;;5051747;28;20486;-56
2021/04/21 12:34:22;;;;;;;7.20;5.20;;;13.80;43.10;;;;;;5080222;28;20404;-56
2021/04/21 12:36:49;;;;;;;14.60;5.93;;;13.80;43.00;;;;;;5058036;28;21031;-57
2021/04/21 12:39:16;;;;;;;9.00;5.50;;;13.80;42.20;;;;;;5065830;28;20465;-55
2021/04/21 12:41:49;;;;;;;6.90;5.40;;;13.90;41.80;;;;;;5055110;22;20515;-63
2021/04/21 12:44:22;;;;;;;8.33;6.07;;;13.90;42.20;;;;;;5041119;28;20458;-59
2021/04/21 12:46:53;;;;;;;10.67;5.27;;;13.90;42.30;;;;;;5029734;28;21050;-62
2021/04/21 12:49:35;;;;;;;6.13;4.77;;;14.00;42.80;;;;;;5046930;28;20421;-63
2021/04/21 12:52:02;;;;;;;8.43;6.03;;;14.10;43.10;;;;;;5047042;28;20460;-61
2021/04/21 12:54:40;;;;;;;10.90;5.40;;;14.20;42.00;;;;;;5051308;28;20519;-61
2021/04/21 12:57:07;;;;;;;9.80;5.40;;;14.20;41.20;;;;;;5048766;28;20437;-62
2021/04/21 12:59:43;;;;;;;12.87;6.30;;;14.30;40.90;;;;;;5049432;28;20945;-62
2021/04/21 13:02:16;;;;;;;8.10;5.40;;;14.30;40.70;;;;;;5050888;28;20425;-62
2021/04/21 13:04:43;;;;;;;10.53;5.17;;;14.30;39.50;;;;;;5049528;28;20603;-62
2021/04/21 13:07:25;;;;;;;7.40;4.90;;;14.40;40.40;;;;;;5046568;28;20511;-62
2021/04/21 13:09:50;;;;;;;5.80;4.97;;;14.50;41.40;;;;;;5043038;28;20456;-61
2021/04/21 13:12:22;;;;;;;16.10;6.23;;;14.70;41.80;;;;;;5043266;28;20422;-61
2021/04/21 13:14:50;;;;;;;6.87;5.60;;;14.80;41.10;;;;;;5047194;28;20171;-61